createdAt,value
2022-11-09T00:00:06.816Z,18.9
2022-11-09T00:01:09.034Z,18.9
2022-11-09T00:02:11.252Z,18.8
2022-11-09T00:03:12.894Z,18.7
2022-11-09T00:04:15.431Z,18.9
2022-11-09T00:05:17.709Z,18.9
2022-11-09T00:06:20.393Z,18.9
2022-11-09T00:07:22.943Z,18.7
2022-11-09T00:08:25.418Z,18.9
2022-11-09T00:09:28.056Z,18.9
2022-11-09T00:10:30.399Z,18.9
2022-11-09T00:11:32.872Z,18.8
2022-11-09T00:12:34.786Z,18.8
2022-11-09T00:13:37.261Z,18.9
2022-11-09T00:14:39.183Z,19
2022-11-09T00:15:41.413Z,19
2022-11-09T00:16:43.885Z,18.9
2022-11-09T00:17:46.367Z,18.9
2022-11-09T00:18:48.289Z,19
2022-11-09T00:19:50.262Z,18.9
2022-11-09T00:20:53.041Z,19
2022-11-09T00:21:55.241Z,19
2022-11-09T00:22:57.438Z,19
2022-11-09T00:23:59.089Z,19
2022-11-09T00:25:01.314Z,18.9
2022-11-09T00:26:03.547Z,19.1
2022-11-09T00:27:06.012Z,19
2022-11-09T00:28:08.211Z,19
2022-11-09T00:29:09.844Z,19
2022-11-09T00:30:11.220Z,19
2022-11-09T00:31:13.149Z,18.9
2022-11-09T00:32:15.638Z,19
2022-11-09T00:33:18.871Z,18.9
2022-11-09T00:34:22.937Z,19.1
2022-11-09T00:35:25.481Z,19
2022-11-09T00:36:28.019Z,19
2022-11-09T00:37:30.385Z,19
2022-11-09T00:38:32.420Z,19.1
2022-11-09T00:39:34.621Z,19.1
2022-11-09T00:40:36.631Z,19.1
2022-11-09T00:41:39.021Z,19
2022-11-09T00:42:40.744Z,19.1
2022-11-09T00:43:42.942Z,19.1
2022-11-09T00:44:45.127Z,19.3
2022-11-09T00:45:47.335Z,19.1
2022-11-09T00:46:49.270Z,19
2022-11-09T00:47:51.743Z,19.1
2022-11-09T00:48:53.931Z,19.2
2022-11-09T00:49:56.160Z,19
2022-11-09T00:50:58.458Z,19.1
2022-11-09T00:52:00.999Z,19.1
2022-11-09T00:53:02.629Z,19.2
2022-11-09T00:54:04.834Z,19.2
2022-11-09T00:55:07.312Z,19.1
2022-11-09T00:56:09.834Z,19
2022-11-09T00:57:12.032Z,19.2
2022-11-09T00:58:13.958Z,19
2022-11-09T00:59:16.149Z,19.3
2022-11-09T01:00:18.368Z,19.1
2022-11-09T01:01:20.781Z,18.9
2022-11-09T01:02:23.257Z,19.1
2022-11-09T01:03:25.473Z,19.2
2022-11-09T01:04:27.949Z,19.1
2022-11-09T01:05:30.145Z,19.2
2022-11-09T01:07:36.805Z,19.2
2022-11-09T01:08:39.422Z,19.1
2022-11-09T01:09:41.888Z,19.2
2022-11-09T01:10:44.107Z,19.1
2022-11-09T01:11:46.297Z,19.3
2022-11-09T01:12:48.225Z,19.2
2022-11-09T01:13:50.695Z,19.3
2022-11-09T01:14:53.460Z,19.3
2022-11-09T01:15:55.375Z,19.3
2022-11-09T01:16:57.575Z,19.1
2022-11-09T01:18:00.044Z,19.3
2022-11-09T01:19:01.696Z,19.2
2022-11-09T01:20:04.394Z,19.2
2022-11-09T01:21:06.591Z,19.3
2022-11-09T01:22:08.804Z,19.3
2022-11-09T01:23:11.058Z,19.3
2022-11-09T01:24:13.574Z,19.3
2022-11-09T01:25:15.770Z,19.3
2022-11-09T01:26:18.251Z,19.5
2022-11-09T01:27:20.737Z,19.4
2022-11-09T01:28:23.206Z,19.3
2022-11-09T01:29:25.417Z,19.3
2022-11-09T01:30:27.610Z,19.4
2022-11-09T01:31:29.572Z,19.5
2022-11-09T01:32:31.489Z,19.3
2022-11-09T01:33:33.683Z,19.2
2022-11-09T01:34:36.153Z,19.2
2022-11-09T01:35:38.634Z,19.4
2022-11-09T01:36:40.811Z,19.5
2022-11-09T01:37:43.324Z,19.3
2022-11-09T01:38:45.817Z,19.2
2022-11-09T01:39:48.426Z,19.4
2022-11-09T01:40:50.603Z,19.6
2022-11-09T01:41:53.102Z,19.4
2022-11-09T01:42:55.301Z,19.4
2022-11-09T01:43:58.011Z,19.5
2022-11-09T01:44:59.927Z,19.3
2022-11-09T01:46:02.409Z,19.4
2022-11-09T01:47:04.605Z,19.4
2022-11-09T01:48:07.083Z,19.2
2022-11-09T01:49:08.993Z,19.4
2022-11-09T01:50:11.471Z,19.6
2022-11-09T01:51:13.964Z,19.3
2022-11-09T01:52:16.443Z,19.3
2022-11-09T01:53:19.670Z,19.3
2022-11-09T01:54:23.356Z,19.3
2022-11-09T01:55:25.884Z,19.3
2022-11-09T01:56:28.354Z,19.4
2022-11-09T01:57:30.530Z,19.5
2022-11-09T01:58:32.741Z,19.7
2022-11-09T01:59:34.953Z,19.4
2022-11-09T02:00:37.425Z,19.4
2022-11-09T02:01:40.062Z,19.5
2022-11-09T02:02:42.590Z,19.4
2022-11-09T02:03:45.084Z,19.6
2022-11-09T02:04:47.555Z,19.7
2022-11-09T02:05:49.773Z,19.6
2022-11-09T02:06:52.094Z,19.5
2022-11-09T02:07:54.639Z,19.5
2022-11-09T02:08:56.609Z,19.6
2022-11-09T02:09:58.560Z,19.5
2022-11-09T02:11:01.191Z,19.4
2022-11-09T02:12:03.664Z,19.5
2022-11-09T02:13:06.362Z,19.5
2022-11-09T02:14:08.561Z,19.3
2022-11-09T02:15:11.036Z,19.6
2022-11-09T02:16:12.955Z,19.5
2022-11-09T02:17:15.419Z,19.4
2022-11-09T02:18:17.617Z,19.5
2022-11-09T02:19:19.819Z,19.5
2022-11-09T02:20:22.291Z,19.5
2022-11-09T02:21:24.492Z,19.5
2022-11-09T02:22:26.979Z,19.5
2022-11-09T02:23:29.488Z,19.6
2022-11-09T02:24:31.701Z,19.6
2022-11-09T02:25:34.199Z,19.3
2022-11-09T02:26:36.737Z,19.6
2022-11-09T02:27:38.928Z,19.5
2022-11-09T02:28:40.852Z,19.4
2022-11-09T02:29:42.751Z,19.7
2022-11-09T02:30:44.965Z,19.3
2022-11-09T02:31:47.155Z,19.5
2022-11-09T02:32:49.357Z,19.3
2022-11-09T02:33:51.823Z,19.5
2022-11-09T02:34:53.751Z,19.5
2022-11-09T02:35:55.659Z,19.6
2022-11-09T02:36:58.134Z,19.6
2022-11-09T02:38:00.329Z,19.6
2022-11-09T02:39:02.806Z,19.6
2022-11-09T02:40:05.047Z,19.7
2022-11-09T02:41:07.540Z,19.6
2022-11-09T02:42:12.450Z,19.3
2022-11-09T02:43:20.421Z,19.6
2022-11-09T02:44:24.192Z,19.6
2022-11-09T02:45:26.386Z,19.6
2022-11-09T02:46:28.584Z,19.6
2022-11-09T02:47:30.781Z,19.5
2022-11-09T02:48:33.261Z,19.6
2022-11-09T02:49:35.731Z,19.6
2022-11-09T02:50:38.204Z,19.3
2022-11-09T02:51:40.676Z,19.3
2022-11-09T02:52:43.149Z,19.4
2022-11-09T02:53:45.617Z,19.5
2022-11-09T02:54:47.830Z,19.4
2022-11-09T02:55:50.359Z,19.6
2022-11-09T02:56:52.870Z,19.3
2022-11-09T02:57:55.580Z,19.5
2022-11-09T02:58:58.062Z,19.5
2022-11-09T03:00:00.540Z,19.8
2022-11-09T03:01:03.288Z,19.5
2022-11-09T03:02:06.139Z,19.5
2022-11-09T03:03:08.641Z,19.7
2022-11-09T03:04:11.109Z,19.4
2022-11-09T03:05:13.309Z,19.7
2022-11-09T03:06:15.813Z,19.5
2022-11-09T03:07:18.341Z,19.6
2022-11-09T03:08:21.105Z,19.4
2022-11-09T03:09:23.302Z,19.6
2022-11-09T03:10:25.218Z,19.8
2022-11-09T03:11:27.711Z,19.6
2022-11-09T03:12:30.224Z,19.7
2022-11-09T03:13:32.596Z,19.6
2022-11-09T03:14:35.080Z,19.7
2022-11-09T03:15:37.569Z,19.6
2022-11-09T03:16:39.465Z,19.5
2022-11-09T03:17:41.947Z,19.6
2022-11-09T03:18:44.431Z,19.5
2022-11-09T03:19:46.646Z,19.7
2022-11-09T03:20:48.561Z,19.5
2022-11-09T03:21:51.042Z,19.7
2022-11-09T03:22:53.232Z,19.5
2022-11-09T03:23:55.425Z,19.6
2022-11-09T03:24:57.603Z,19.5
2022-11-09T03:26:00.098Z,19.6
2022-11-09T03:27:02.585Z,19.4
2022-11-09T03:28:04.811Z,19.3
2022-11-09T03:29:07.337Z,19.3
2022-11-09T03:30:09.545Z,19.5
2022-11-09T03:31:11.713Z,19.7
2022-11-09T03:32:13.908Z,19.6
2022-11-09T03:33:16.826Z,19.3
2022-11-09T03:34:20.376Z,19.5
2022-11-09T03:35:22.558Z,19.7
2022-11-09T03:36:24.750Z,19.5
2022-11-09T03:37:27.391Z,19.7
2022-11-09T03:38:29.022Z,19.6
2022-11-09T03:39:30.959Z,19.6
2022-11-09T03:40:33.154Z,19.5
2022-11-09T03:41:35.638Z,19.5
2022-11-09T03:42:37.857Z,19.5
2022-11-09T03:43:40.475Z,19.4
2022-11-09T03:44:43.114Z,19.5
2022-11-09T03:45:45.599Z,19.4
2022-11-09T03:46:47.789Z,19.8
2022-11-09T03:47:50.314Z,19.6
2022-11-09T03:48:52.785Z,19.6
2022-11-09T03:49:54.979Z,19.3
2022-11-09T03:50:57.445Z,19.5
2022-11-09T03:51:59.092Z,19.6
2022-11-09T03:53:01.328Z,19.7
2022-11-09T03:54:03.393Z,19.5
2022-11-09T03:55:05.616Z,19.7
2022-11-09T03:56:07.814Z,19.5
2022-11-09T03:57:09.996Z,19.7
2022-11-09T03:58:12.232Z,19.5
2022-11-09T03:59:14.779Z,19.5
2022-11-09T04:00:17.210Z,19.6
2022-11-09T04:01:19.315Z,19.6
2022-11-09T04:02:22.112Z,19.5
2022-11-09T04:03:24.580Z,19.6
2022-11-09T04:04:27.068Z,19.7
2022-11-09T04:05:29.533Z,19.6
2022-11-09T04:06:31.852Z,19.7
2022-11-09T04:07:33.976Z,19.5
2022-11-09T04:08:36.183Z,19.5
2022-11-09T04:09:38.657Z,19.3
2022-11-09T04:10:40.854Z,19.6
2022-11-09T04:11:43.328Z,19.5
2022-11-09T04:12:45.797Z,19.4
2022-11-09T04:13:47.738Z,19.3
2022-11-09T04:14:49.402Z,19.4
2022-11-09T04:15:51.675Z,19.4
2022-11-09T04:16:54.151Z,19.3
2022-11-09T04:17:56.622Z,19.4
2022-11-09T04:18:59.100Z,19.4
2022-11-09T04:20:01.050Z,19.3
2022-11-09T04:21:03.255Z,19.4
2022-11-09T04:22:05.447Z,19.5
2022-11-09T04:23:07.928Z,19.4
2022-11-09T04:24:10.414Z,19.3
2022-11-09T04:25:12.611Z,19.2
2022-11-09T04:26:14.527Z,19.2
2022-11-09T04:27:16.753Z,19.3
2022-11-09T04:28:19.017Z,19.4
2022-11-09T04:29:21.241Z,19.3
2022-11-09T04:30:23.566Z,19.4
2022-11-09T04:32:31.095Z,19.1
2022-11-09T04:33:33.571Z,19.3
2022-11-09T04:34:35.773Z,19.2
2022-11-09T04:35:38.254Z,19.3
2022-11-09T04:36:40.760Z,19.3
2022-11-09T04:37:42.968Z,19.2
2022-11-09T04:38:45.157Z,19.2
2022-11-09T04:39:47.679Z,19.2
2022-11-09T04:40:50.186Z,19.2
2022-11-09T04:41:52.711Z,19.2
2022-11-09T04:42:54.629Z,19.3
2022-11-09T04:43:57.148Z,19.3
2022-11-09T04:44:59.708Z,19.3
2022-11-09T04:46:01.995Z,19.1
2022-11-09T04:47:04.636Z,19
2022-11-09T04:48:06.844Z,19.2
2022-11-09T04:49:08.800Z,19.1
2022-11-09T04:50:11.285Z,19.2
2022-11-09T04:51:13.490Z,19.1
2022-11-09T04:52:15.997Z,19.2
2022-11-09T04:53:18.491Z,19.3
2022-11-09T04:54:21.430Z,19.3
2022-11-09T04:55:23.078Z,19
2022-11-09T04:56:25.024Z,19.2
2022-11-09T04:57:26.954Z,19.1
2022-11-09T04:58:29.244Z,19.2
2022-11-09T04:59:31.706Z,19.2
2022-11-09T05:00:34.207Z,19.2
2022-11-09T05:01:35.873Z,19.2
2022-11-09T05:02:38.413Z,19.1
2022-11-09T05:03:40.196Z,19.2
2022-11-09T05:04:42.706Z,19
2022-11-09T05:06:49.685Z,19
2022-11-09T05:07:52.266Z,19
2022-11-09T05:08:54.454Z,19.1
2022-11-09T05:09:56.940Z,19.1
2022-11-09T05:10:59.114Z,19.1
2022-11-09T05:12:01.600Z,19.1
2022-11-09T05:13:04.074Z,19.2
2022-11-09T05:14:06.005Z,19.2
2022-11-09T05:15:08.471Z,19.1
2022-11-09T05:16:10.962Z,19.2
2022-11-09T05:17:13.294Z,19
2022-11-09T05:18:15.819Z,19
2022-11-09T05:19:18.278Z,19.1
2022-11-09T05:20:20.756Z,19.1
2022-11-09T05:21:23.220Z,19.1
2022-11-09T05:22:25.697Z,19.2
2022-11-09T05:23:28.162Z,19
2022-11-09T05:24:30.366Z,19
2022-11-09T05:25:32.831Z,19.1
2022-11-09T05:26:34.783Z,19
2022-11-09T05:27:37.257Z,19
2022-11-09T05:28:39.486Z,19.1
2022-11-09T05:29:41.677Z,19.2
2022-11-09T05:30:43.882Z,19
2022-11-09T05:32:51.500Z,19
2022-11-09T05:33:54.030Z,19.1
2022-11-09T05:34:55.933Z,19
2022-11-09T05:35:58.401Z,19
2022-11-09T05:38:05.855Z,19.1
2022-11-09T05:39:08.096Z,19.1
2022-11-09T05:40:10.294Z,19
2022-11-09T05:41:12.506Z,19
2022-11-09T05:42:14.437Z,19.1
2022-11-09T05:43:16.662Z,19
2022-11-09T05:44:20.646Z,19
2022-11-09T05:46:27.272Z,19.1
2022-11-09T05:47:29.209Z,19
2022-11-09T05:48:31.490Z,19.1
2022-11-09T05:49:34.015Z,18.9
2022-11-09T05:50:36.487Z,19
2022-11-09T05:51:38.688Z,19.1
2022-11-09T05:52:41.153Z,18.9
2022-11-09T05:54:48.653Z,19
2022-11-09T05:55:50.872Z,19.1
2022-11-09T05:56:53.057Z,19.1
2022-11-09T05:57:54.962Z,19
2022-11-09T05:58:57.170Z,19
2022-11-09T05:59:59.373Z,19.1
2022-11-09T06:01:01.847Z,19
2022-11-09T06:02:03.893Z,19
2022-11-09T06:03:06.421Z,19
2022-11-09T06:04:08.369Z,19
2022-11-09T06:05:10.929Z,19.1
2022-11-09T06:06:13.160Z,19
2022-11-09T06:07:15.519Z,19
2022-11-09T06:08:18.220Z,19
2022-11-09T06:09:20.392Z,19.1
2022-11-09T06:10:22.314Z,19
2022-11-09T06:11:25.236Z,18.9
2022-11-09T06:12:27.714Z,18.9
2022-11-09T06:13:29.910Z,19.1
2022-11-09T06:14:31.843Z,18.9
2022-11-09T06:15:33.766Z,19
2022-11-09T06:16:36.248Z,19.1
2022-11-09T06:17:38.719Z,19.1
2022-11-09T06:18:40.369Z,19.1
2022-11-09T06:19:42.598Z,18.9
2022-11-09T06:20:45.132Z,19.1
2022-11-09T06:21:47.306Z,19.1
2022-11-09T06:22:49.793Z,19.2
2022-11-09T06:23:51.978Z,19
2022-11-09T06:24:54.457Z,18.9
2022-11-09T06:25:56.938Z,18.9
2022-11-09T06:26:59.415Z,19
2022-11-09T06:28:01.933Z,18.8
2022-11-09T06:29:04.142Z,19
2022-11-09T06:30:06.332Z,18.9
2022-11-09T06:31:08.548Z,19.1
2022-11-09T06:32:11.018Z,19.1
2022-11-09T06:33:13.216Z,19.1
2022-11-09T06:34:15.419Z,18.9
2022-11-09T06:35:17.913Z,19
2022-11-09T06:36:20.511Z,18.9
2022-11-09T06:37:22.995Z,18.8
2022-11-09T06:38:25.208Z,18.9
2022-11-09T06:39:27.106Z,19
2022-11-09T06:40:29.314Z,18.9
2022-11-09T06:41:30.678Z,18.8
2022-11-09T06:42:33.217Z,19
2022-11-09T06:43:35.571Z,18.9
2022-11-09T06:44:37.499Z,19
2022-11-09T06:45:39.697Z,19.1
2022-11-09T06:46:42.295Z,19
2022-11-09T06:47:44.222Z,19
2022-11-09T06:49:51.158Z,19
2022-11-09T06:50:53.667Z,19.1
2022-11-09T06:51:56.498Z,19
2022-11-09T06:52:58.992Z,19
2022-11-09T06:54:00.981Z,18.9
2022-11-09T06:55:03.262Z,18.9
2022-11-09T06:56:05.739Z,18.9
2022-11-09T06:57:07.960Z,19
2022-11-09T06:58:10.446Z,19.1
2022-11-09T06:59:12.934Z,19
2022-11-09T07:00:15.139Z,19
2022-11-09T07:01:17.470Z,18.9
2022-11-09T07:02:20.305Z,19.1
2022-11-09T07:03:23.741Z,19
2022-11-09T07:04:26.811Z,19.1
2022-11-09T07:05:30.122Z,18.9
2022-11-09T07:06:32.468Z,18.9
2022-11-09T07:07:35.286Z,18.9
2022-11-09T07:08:37.762Z,19.1
2022-11-09T07:09:40.001Z,19
2022-11-09T07:10:42.484Z,19
2022-11-09T07:11:44.419Z,18.9
2022-11-09T07:12:46.920Z,18.8
2022-11-09T07:14:54.391Z,19
2022-11-09T07:15:56.608Z,18.9
2022-11-09T07:16:58.800Z,18.9
2022-11-09T07:18:01.043Z,18.9
2022-11-09T07:19:03.286Z,19.1
2022-11-09T07:20:05.756Z,19.2
2022-11-09T07:22:12.962Z,18.9
2022-11-09T07:23:15.507Z,18.9
2022-11-09T07:24:18.342Z,18.9
2022-11-09T07:25:20.825Z,18.9
2022-11-09T07:26:22.751Z,19
2022-11-09T07:28:29.666Z,18.9
2022-11-09T07:29:32.155Z,19
2022-11-09T07:30:34.060Z,18.8
2022-11-09T07:31:35.972Z,18.9
2022-11-09T07:33:43.443Z,18.8
2022-11-09T07:34:45.366Z,19
2022-11-09T07:35:47.306Z,18.8
2022-11-09T07:36:49.542Z,19.1
2022-11-09T07:37:51.742Z,19
2022-11-09T07:38:54.003Z,18.8
2022-11-09T07:39:55.907Z,18.9
2022-11-09T07:40:58.395Z,18.9
2022-11-09T07:42:00.880Z,19
2022-11-09T07:43:03.066Z,19
2022-11-09T07:44:05.536Z,18.9
2022-11-09T07:45:08.076Z,19
2022-11-09T07:46:10.798Z,19.1
2022-11-09T07:48:18.538Z,18.9
2022-11-09T07:49:20.488Z,19
2022-11-09T07:50:22.687Z,18.9
2022-11-09T07:51:24.870Z,19
2022-11-09T07:52:26.825Z,19
2022-11-09T07:53:29.370Z,19.1
2022-11-09T07:54:31.942Z,19
2022-11-09T07:55:33.857Z,18.9
2022-11-09T07:56:36.042Z,18.9
2022-11-09T07:57:38.257Z,18.9
2022-11-09T07:58:40.453Z,18.9
2022-11-09T07:59:42.671Z,18.8
2022-11-09T08:00:44.891Z,18.9
2022-11-09T08:01:47.221Z,18.9
2022-11-09T08:02:49.515Z,18.9
2022-11-09T08:03:51.448Z,18.8
2022-11-09T08:04:53.653Z,18.9
2022-11-09T08:05:56.143Z,18.9
2022-11-09T08:06:58.720Z,19
2022-11-09T08:08:01.322Z,18.9
2022-11-09T08:09:03.547Z,18.9
2022-11-09T08:10:06.106Z,18.9
2022-11-09T08:11:08.318Z,19
2022-11-09T08:12:10.516Z,18.9
2022-11-09T08:13:13.024Z,18.9
2022-11-09T08:14:15.496Z,19
2022-11-09T08:15:17.423Z,19
2022-11-09T08:16:19.366Z,19
2022-11-09T08:17:21.590Z,19
2022-11-09T08:18:24.811Z,19.1
2022-11-09T08:19:27.099Z,18.8
2022-11-09T08:20:29.587Z,18.9
2022-11-09T08:21:31.484Z,18.8
2022-11-09T08:22:33.968Z,18.9
2022-11-09T08:23:35.888Z,18.9
2022-11-09T08:24:38.394Z,18.9
2022-11-09T08:25:40.709Z,18.9
2022-11-09T08:26:43.196Z,19
2022-11-09T08:27:45.669Z,18.9
2022-11-09T08:28:47.867Z,19
2022-11-09T08:29:50.064Z,18.9
2022-11-09T08:30:52.271Z,18.7
2022-11-09T08:31:54.545Z,18.9
2022-11-09T08:32:56.770Z,19
2022-11-09T08:33:59.268Z,18.8
2022-11-09T08:35:01.742Z,18.9
2022-11-09T08:36:04.218Z,19
2022-11-09T08:37:06.433Z,18.9
2022-11-09T08:38:08.905Z,18.9
2022-11-09T08:39:10.861Z,18.8
2022-11-09T08:40:13.377Z,18.9
2022-11-09T08:41:15.963Z,18.9
2022-11-09T08:42:18.449Z,18.9
2022-11-09T08:43:20.664Z,19
2022-11-09T08:44:22.857Z,18.9
2022-11-09T08:45:25.366Z,18.9
2022-11-09T08:46:27.339Z,19
2022-11-09T08:47:29.541Z,18.9
2022-11-09T08:48:32.016Z,19.1
2022-11-09T08:49:34.219Z,19
2022-11-09T08:50:36.722Z,18.9
2022-11-09T08:51:38.915Z,19
2022-11-09T08:52:41.104Z,19
2022-11-09T08:53:43.323Z,18.9
2022-11-09T08:54:45.564Z,19
2022-11-09T08:56:52.784Z,19
2022-11-09T08:57:55.315Z,18.8
2022-11-09T08:58:57.525Z,18.8
2022-11-09T08:59:59.157Z,18.9
2022-11-09T09:01:01.095Z,19.1
2022-11-09T09:02:03.413Z,19
2022-11-09T09:03:05.599Z,19
2022-11-09T09:04:08.109Z,18.9
2022-11-09T09:05:10.991Z,18.9
2022-11-09T09:06:13.479Z,18.8
2022-11-09T09:07:15.233Z,18.9
2022-11-09T09:08:18.259Z,18.9
2022-11-09T09:09:21.733Z,18.9
2022-11-09T09:10:24.247Z,18.8
2022-11-09T09:11:26.453Z,18.9
2022-11-09T09:12:28.698Z,19
2022-11-09T09:13:31.239Z,18.8
2022-11-09T09:14:33.726Z,18.9
2022-11-09T09:15:35.646Z,18.9
2022-11-09T09:16:37.865Z,18.9
2022-11-09T09:17:40.356Z,18.9
2022-11-09T09:18:42.845Z,18.9
2022-11-09T09:20:49.775Z,18.9
2022-11-09T09:21:51.981Z,19
2022-11-09T09:22:54.468Z,18.8
2022-11-09T09:23:56.738Z,18.8
2022-11-09T09:24:58.963Z,18.8
2022-11-09T09:26:01.463Z,18.9
2022-11-09T09:27:03.965Z,18.9
2022-11-09T09:28:06.482Z,18.9
2022-11-09T09:29:08.743Z,18.8
2022-11-09T09:30:10.672Z,18.8
2022-11-09T09:32:18.167Z,18.9
2022-11-09T09:33:20.123Z,18.9
2022-11-09T09:34:22.358Z,18.8
2022-11-09T09:35:24.628Z,19
2022-11-09T09:36:26.896Z,18.8
2022-11-09T09:37:29.423Z,19
2022-11-09T09:38:31.898Z,19
2022-11-09T09:39:34.390Z,18.9
2022-11-09T09:40:36.857Z,18.9
2022-11-09T09:41:39.080Z,18.9
2022-11-09T09:42:41.279Z,18.8
2022-11-09T09:43:44.493Z,19
2022-11-09T09:44:47.027Z,18.9
2022-11-09T09:45:49.234Z,18.9
2022-11-09T09:46:51.569Z,18.9
2022-11-09T09:47:54.059Z,18.9
2022-11-09T09:48:56.261Z,19
2022-11-09T09:49:58.282Z,18.9
2022-11-09T09:51:01.031Z,19
2022-11-09T09:52:03.090Z,18.7
2022-11-09T09:54:10.298Z,18.9
2022-11-09T09:55:12.504Z,18.9
2022-11-09T09:56:14.983Z,18.9
2022-11-09T09:57:17.217Z,18.9
2022-11-09T09:58:20.449Z,19
2022-11-09T09:59:24.162Z,19
2022-11-09T10:00:26.464Z,18.8
2022-11-09T10:01:28.649Z,19
2022-11-09T10:02:30.847Z,18.9
2022-11-09T10:03:33.340Z,18.9
2022-11-09T10:04:35.795Z,18.8
2022-11-09T10:05:38.689Z,18.9
2022-11-09T10:06:40.760Z,18.9
2022-11-09T10:07:42.961Z,19
2022-11-09T10:08:44.948Z,18.9
2022-11-09T10:09:47.421Z,18.8
2022-11-09T10:10:49.891Z,18.9
2022-11-09T10:11:52.380Z,18.8
2022-11-09T10:12:59.388Z,18.9
2022-11-09T10:14:01.592Z,18.8
2022-11-09T10:15:04.120Z,18.8
2022-11-09T10:16:06.529Z,18.9
2022-11-09T10:17:08.728Z,18.8
2022-11-09T10:18:11.212Z,18.9
2022-11-09T10:19:12.849Z,18.8
2022-11-09T10:20:15.336Z,18.9
2022-11-09T10:21:17.561Z,18.8
2022-11-09T10:22:20.039Z,18.9
2022-11-09T10:23:22.234Z,18.9
2022-11-09T10:24:24.181Z,18.8
2022-11-09T10:26:31.665Z,18.8
2022-11-09T10:27:33.601Z,18.9
2022-11-09T10:29:40.802Z,18.9
2022-11-09T10:30:43.027Z,18.8
2022-11-09T10:31:45.615Z,18.8
2022-11-09T10:32:47.856Z,18.9
2022-11-09T10:33:49.498Z,18.8
2022-11-09T10:34:51.719Z,18.8
2022-11-09T10:35:54.394Z,18.8
2022-11-09T10:36:56.330Z,19
2022-11-09T10:37:57.960Z,18.8
2022-11-09T10:39:00.453Z,18.9
2022-11-09T10:40:02.658Z,18.9
2022-11-09T10:41:04.711Z,18.8
2022-11-09T10:42:07.196Z,18.9
2022-11-09T10:43:09.414Z,18.9
2022-11-09T10:45:16.318Z,19
2022-11-09T10:46:18.264Z,18.8
2022-11-09T10:47:20.817Z,18.8
2022-11-09T10:48:23.547Z,18.9
2022-11-09T10:49:25.783Z,18.8
2022-11-09T10:50:28.314Z,18.8
2022-11-09T10:51:30.789Z,18.8
2022-11-09T10:52:32.712Z,18.9
2022-11-09T10:53:34.072Z,18.8
2022-11-09T10:54:36.281Z,18.8
2022-11-09T10:55:38.742Z,18.8
2022-11-09T10:57:45.151Z,18.8
2022-11-09T10:58:47.088Z,18.9
2022-11-09T10:59:49.324Z,18.8
2022-11-09T11:00:51.508Z,18.9
2022-11-09T11:02:58.713Z,18.9
2022-11-09T11:04:00.988Z,19
2022-11-09T11:05:02.911Z,18.9
2022-11-09T11:06:05.118Z,18.8
2022-11-09T11:07:07.482Z,18.9
2022-11-09T11:08:10.140Z,18.8
2022-11-09T11:09:12.619Z,18.9
2022-11-09T11:10:14.835Z,18.8
2022-11-09T11:12:22.038Z,18.8
2022-11-09T11:13:24.753Z,18.9
2022-11-09T11:14:26.943Z,18.9
2022-11-09T11:15:29.487Z,18.9
2022-11-09T11:16:31.952Z,18.8
2022-11-09T11:17:33.857Z,18.9
2022-11-09T11:18:36.374Z,18.9
2022-11-09T11:19:38.936Z,18.8
2022-11-09T11:20:41.405Z,18.9
2022-11-09T11:21:43.617Z,18.9
2022-11-09T11:22:46.146Z,19
2022-11-09T11:23:48.348Z,18.9
2022-11-09T11:24:50.845Z,18.8
2022-11-09T11:25:53.074Z,18.8
2022-11-09T11:26:55.270Z,18.8
2022-11-09T11:27:57.206Z,18.8
2022-11-09T11:28:59.697Z,18.8
2022-11-09T11:30:01.941Z,18.8
2022-11-09T11:31:04.460Z,18.8
2022-11-09T11:32:06.658Z,18.8
2022-11-09T11:33:08.870Z,18.9
2022-11-09T11:34:11.094Z,18.9
2022-11-09T11:35:18.214Z,18.9
2022-11-09T11:36:20.411Z,18.8
2022-11-09T11:37:22.843Z,18.9
2022-11-09T11:38:24.844Z,18.8
2022-11-09T11:40:32.315Z,18.8
2022-11-09T11:41:34.834Z,18.9
2022-11-09T11:42:37.308Z,18.9
2022-11-09T11:43:39.519Z,18.9
2022-11-09T11:44:41.449Z,18.8
2022-11-09T11:45:43.951Z,18.8
2022-11-09T11:46:46.485Z,18.9
2022-11-09T11:47:48.705Z,18.8
2022-11-09T11:48:50.936Z,18.9
2022-11-09T11:49:53.149Z,18.8
2022-11-09T11:50:55.722Z,18.9
2022-11-09T11:51:57.367Z,18.8
2022-11-09T11:52:59.563Z,18.8
2022-11-09T11:54:01.784Z,18.8
2022-11-09T11:55:03.972Z,18.9
2022-11-09T11:56:06.176Z,18.8
2022-11-09T11:57:08.377Z,18.9
2022-11-09T11:58:10.728Z,18.8
2022-11-09T11:59:13.208Z,18.8
2022-11-09T12:00:15.704Z,18.7
2022-11-09T12:01:17.908Z,18.9
2022-11-09T12:02:20.635Z,18.9
2022-11-09T12:03:24.091Z,18.8
2022-11-09T12:05:31.558Z,18.9
2022-11-09T12:06:34.262Z,18.9
2022-11-09T12:07:42.381Z,18.8
2022-11-09T12:08:44.859Z,18.9
2022-11-09T12:09:47.058Z,18.9
2022-11-09T12:10:49.540Z,18.9
2022-11-09T12:11:52.007Z,18.8
2022-11-09T12:12:53.925Z,18.8
2022-11-09T12:13:56.118Z,18.8
2022-11-09T12:14:58.336Z,18.7
2022-11-09T12:16:00.828Z,18.8
2022-11-09T12:17:03.321Z,18.8
2022-11-09T12:18:05.884Z,18.9
2022-11-09T12:19:08.096Z,18.8
2022-11-09T12:20:09.999Z,18.8
2022-11-09T12:21:12.437Z,18.9
2022-11-09T12:22:14.997Z,18.8
2022-11-09T12:23:17.578Z,18.8
2022-11-09T12:24:21.157Z,18.9
2022-11-09T12:25:23.634Z,18.9
2022-11-09T12:26:25.841Z,18.9
2022-11-09T12:28:32.468Z,18.7
2022-11-09T12:29:34.666Z,18.8
2022-11-09T12:30:36.885Z,18.8
2022-11-09T12:31:39.084Z,18.9
2022-11-09T12:32:41.297Z,18.9
2022-11-09T12:33:44.567Z,18.9
2022-11-09T12:34:46.208Z,18.8
2022-11-09T12:35:48.924Z,18.8
2022-11-09T12:36:51.755Z,18.9
2022-11-09T12:37:54.279Z,18.7
2022-11-09T12:38:56.199Z,18.8
2022-11-09T12:39:58.400Z,18.8
2022-11-09T12:41:00.871Z,18.8
2022-11-09T12:42:03.201Z,18.8
2022-11-09T12:43:06.048Z,18.8
2022-11-09T12:45:13.514Z,18.7
2022-11-09T12:46:15.171Z,18.6
2022-11-09T12:47:17.644Z,18.8
2022-11-09T12:48:19.829Z,18.9
2022-11-09T12:49:22.353Z,18.8
2022-11-09T12:50:24.586Z,18.9
2022-11-09T12:51:27.076Z,18.8
2022-11-09T12:52:29.623Z,18.8
2022-11-09T12:53:31.915Z,18.8
2022-11-09T12:54:34.466Z,18.9
2022-11-09T12:55:36.661Z,18.7
2022-11-09T12:56:38.900Z,18.8
2022-11-09T12:57:40.813Z,18.9
2022-11-09T12:58:43.293Z,18.9
2022-11-09T12:59:45.494Z,18.7
2022-11-09T13:00:47.995Z,18.8
2022-11-09T13:01:50.342Z,18.9
2022-11-09T13:02:52.636Z,18.7
2022-11-09T13:03:55.686Z,18.9
2022-11-09T13:04:58.328Z,18.9
2022-11-09T13:06:03.145Z,18.8
2022-11-09T13:07:05.566Z,18.9
2022-11-09T13:08:07.749Z,18.9
2022-11-09T13:09:10.298Z,18.8
2022-11-09T13:10:12.546Z,18.8
2022-11-09T13:11:14.868Z,18.8
2022-11-09T13:12:17.346Z,18.9
2022-11-09T13:13:20.669Z,18.8
2022-11-09T13:14:23.758Z,18.9
2022-11-09T13:15:25.973Z,18.8
2022-11-09T13:16:27.921Z,18.9
2022-11-09T13:17:30.153Z,18.8
2022-11-09T13:19:37.351Z,18.8
2022-11-09T13:21:44.270Z,18.8
2022-11-09T13:22:46.476Z,18.9
2022-11-09T13:24:54.035Z,18.8
2022-11-09T13:25:56.633Z,18.7
2022-11-09T13:26:59.116Z,18.8
2022-11-09T13:28:01.324Z,18.9
2022-11-09T13:29:03.810Z,18.8
2022-11-09T13:30:05.765Z,18.8
2022-11-09T13:31:08.234Z,18.8
2022-11-09T13:32:10.921Z,18.8
2022-11-09T13:33:13.119Z,18.8
2022-11-09T13:34:15.046Z,18.8
2022-11-09T13:35:16.949Z,18.8
2022-11-09T13:36:19.184Z,18.9
2022-11-09T13:37:21.390Z,18.8
2022-11-09T13:38:23.841Z,18.8
2022-11-09T13:39:26.317Z,18.8
2022-11-09T13:40:28.824Z,18.8
2022-11-09T13:41:31.428Z,18.8
2022-11-09T13:42:33.851Z,18.8
2022-11-09T13:43:35.500Z,18.9
2022-11-09T13:44:40.639Z,18.9
2022-11-09T13:45:47.374Z,18.7
2022-11-09T13:46:49.875Z,18.7
2022-11-09T13:47:52.069Z,18.7
2022-11-09T13:48:53.741Z,18.9
2022-11-09T13:49:56.610Z,18.9
2022-11-09T13:50:58.536Z,18.8
2022-11-09T13:52:00.831Z,18.8
2022-11-09T13:53:02.472Z,18.8
2022-11-09T13:54:04.944Z,18.8
2022-11-09T13:55:07.437Z,18.9
2022-11-09T13:56:09.970Z,18.7
2022-11-09T13:57:12.797Z,18.8
2022-11-09T13:58:14.731Z,18.9
2022-11-09T13:59:17.241Z,18.8
2022-11-09T14:00:19.714Z,18.8
2022-11-09T14:01:21.991Z,18.8
2022-11-09T14:02:24.792Z,18.9
2022-11-09T14:03:26.734Z,18.8
2022-11-09T14:04:29.210Z,18.8
2022-11-09T14:05:31.421Z,18.9
2022-11-09T14:06:33.792Z,18.9
2022-11-09T14:07:36.244Z,18.9
2022-11-09T14:09:43.410Z,18.9
2022-11-09T14:10:45.342Z,18.8
2022-11-09T14:11:47.735Z,18.9
2022-11-09T14:12:50.425Z,18.8
2022-11-09T14:13:52.630Z,18.7
2022-11-09T14:14:59.528Z,18.7
2022-11-09T14:16:01.461Z,18.9
2022-11-09T14:17:03.658Z,18.8
2022-11-09T14:18:06.599Z,18.9
2022-11-09T14:19:09.104Z,18.8
2022-11-09T14:20:12.748Z,18.8
2022-11-09T14:21:15.130Z,18.8
2022-11-09T14:22:17.058Z,18.8
2022-11-09T14:23:19.287Z,18.8
2022-11-09T14:24:21.502Z,18.8
2022-11-09T14:25:23.409Z,18.7
2022-11-09T14:26:25.635Z,18.8
2022-11-09T14:27:28.182Z,18.8
2022-11-09T14:28:30.737Z,18.8
2022-11-09T14:29:32.663Z,18.7
2022-11-09T14:30:34.869Z,18.9
2022-11-09T14:32:42.067Z,18.7